TimeEDT,TemperatureF,Dew PointF,Humidity,Sea Level PressureIn,VisibilityMPH,Wind Direction,Wind SpeedMPH,Gust SpeedMPH,PrecipitationIn,Events,Conditions,WindDirDegrees,DateUTC
12:15 AM,55.6,36.3,48,30.43,10.0,SE,10.4,-,N/A,,Clear,140,2013-05-03 04:15:00
12:35 AM,52.0,36.7,56,30.43,10.0,SSE,6.9,-,N/A,,Clear,160,2013-05-03 04:35:00
12:55 AM,52.9,36.7,54,30.44,10.0,SSE,6.9,-,N/A,,Clear,160,2013-05-03 04:55:00
1:15 AM,51.8,36.5,56,30.44,10.0,SSE,9.2,-,N/A,,Clear,150,2013-05-03 05:15:00
1:55 AM,48.4,35.6,61,30.45,10.0,SSE,6.9,-,N/A,,Clear,160,2013-05-03 05:55:00
2:15 AM,46.0,35.2,66,30.45,10.0,SSE,8.1,-,N/A,,Clear,150,2013-05-03 06:15:00
2:35 AM,45.5,35.1,67,30.45,10.0,SSE,6.9,-,N/A,,Clear,150,2013-05-03 06:35:00
2:55 AM,44.6,34.0,66,30.45,10.0,SSE,5.8,-,N/A,,Clear,160,2013-05-03 06:55:00
3:15 AM,45.3,32.0,60,30.46,10.0,SSE,8.1,-,N/A,,Clear,160,2013-05-03 07:15:00
3:35 AM,44.8,30.7,58,30.46,10.0,SSE,6.9,-,N/A,,Clear,160,2013-05-03 07:35:00
3:55 AM,43.5,28.8,56,30.47,10.0,SSE,6.9,-,N/A,,Clear,160,2013-05-03 07:55:00
4:15 AM,43.0,27.5,54,30.47,10.0,SSE,5.8,-,N/A,,Clear,160,2013-05-03 08:15:00
4:35 AM,40.1,28.2,63,30.47,10.0,SSE,5.8,-,N/A,,Clear,160,2013-05-03 08:35:00
4:55 AM,40.3,28.4,63,30.48,10.0,SSE,5.8,-,N/A,,Clear,150,2013-05-03 08:55:00
5:15 AM,39.7,27.9,63,30.49,10.0,SSE,5.8,-,N/A,,Clear,150,2013-05-03 09:15:00
5:35 AM,39.2,27.5,63,30.49,10.0,SSE,5.8,-,N/A,,Clear,160,2013-05-03 09:35:00
5:55 AM,38.5,28.0,66,30.50,10.0,SSE,5.8,-,N/A,,Clear,160,2013-05-03 09:55:00
6:15 AM,39.4,29.3,67,30.51,10.0,SSE,6.9,-,N/A,,Clear,150,2013-05-03 10:15:00
6:35 AM,42.1,30.2,63,30.52,10.0,SSE,6.9,-,N/A,,Clear,150,2013-05-03 10:35:00
6:55 AM,44.4,30.0,57,30.52,10.0,SSE,8.1,-,N/A,,Clear,160,2013-05-03 10:55:00
7:15 AM,45.5,30.2,55,30.52,10.0,SSE,8.1,-,N/A,,Clear,150,2013-05-03 11:15:00
7:35 AM,46.6,31.1,55,30.53,10.0,SSE,5.8,-,N/A,,Clear,150,2013-05-03 11:35:00
7:55 AM,47.3,31.1,53,30.53,10.0,SSE,5.8,-,N/A,,Clear,160,2013-05-03 11:55:00
8:15 AM,48.4,31.8,53,30.52,10.0,SE,3.5,-,N/A,,Clear,130,2013-05-03 12:15:00
8:35 AM,50.2,32.4,50,30.52,10.0,SSE,5.8,-,N/A,,Clear,150,2013-05-03 12:35:00
8:55 AM,51.1,33.3,51,30.52,10.0,SSE,3.5,-,N/A,,Clear,150,2013-05-03 12:55:00
9:15 AM,52.0,32.0,47,30.52,10.0,SE,6.9,-,N/A,,Clear,130,2013-05-03 13:15:00
9:35 AM,53.4,33.1,46,30.51,10.0,East,4.6,-,N/A,,Clear,100,2013-05-03 13:35:00
10:15 AM,54.9,32.7,43,30.50,10.0,Calm,Calm,-,N/A,,Clear,0,2013-05-03 14:15:00
10:55 AM,57.4,31.8,38,30.49,10.0,Calm,Calm,-,N/A,,Clear,0,2013-05-03 14:55:00
11:15 AM,58.3,32.5,38,30.49,10.0,Calm,Calm,-,N/A,,Clear,0,2013-05-03 15:15:00
11:35 AM,60.4,34.5,38,30.48,10.0,Calm,Calm,-,N/A,,Clear,0,2013-05-03 15:35:00
12:15 PM,61.2,32.0,33,30.46,10.0,Calm,Calm,-,N/A,,Clear,0,2013-05-03 16:15:00
12:35 PM,62.8,34.3,35,30.45,10.0,East,4.6,-,N/A,,Clear,90,2013-05-03 16:35:00
12:55 PM,63.3,31.6,31,30.44,10.0,South,5.8,-,N/A,,Clear,190,2013-05-03 16:55:00
1:35 PM,64.6,32.0,30,30.42,10.0,SW,5.8,-,N/A,,Clear,230,2013-05-03 17:35:00
1:55 PM,65.7,33.1,30,30.41,10.0,Calm,Calm,-,N/A,,Clear,0,2013-05-03 17:55:00
2:15 PM,66.6,35.4,32,30.40,10.0,SSW,4.6,-,N/A,,Clear,210,2013-05-03 18:15:00
2:35 PM,66.9,32.7,28,30.40,10.0,SW,5.8,-,N/A,,Clear,220,2013-05-03 18:35:00
2:55 PM,67.8,33.6,28,30.39,10.0,South,5.8,-,N/A,,Clear,170,2013-05-03 18:55:00
3:15 PM,68.0,34.0,28,30.38,10.0,SSE,3.5,-,N/A,,Clear,160,2013-05-03 19:15:00
3:35 PM,68.0,32.5,27,30.37,10.0,SSE,6.9,-,N/A,,Clear,160,2013-05-03 19:35:00
3:55 PM,68.2,33.1,27,30.36,10.0,WSW,5.8,-,N/A,,Clear,250,2013-05-03 19:55:00
4:15 PM,69.1,33.4,27,30.35,10.0,Calm,Calm,-,N/A,,Clear,0,2013-05-03 20:15:00
4:35 PM,68.7,32.2,26,30.35,10.0,WSW,5.8,-,N/A,,Clear,240,2013-05-03 20:35:00
4:55 PM,69.8,33.8,27,30.35,10.0,SSW,3.5,-,N/A,,Clear,200,2013-05-03 20:55:00
5:15 PM,69.6,33.4,26,30.35,10.0,SSW,5.8,-,N/A,,Clear,200,2013-05-03 21:15:00
5:35 PM,69.3,32.7,26,30.34,10.0,SSE,3.5,-,N/A,,Clear,160,2013-05-03 21:35:00
5:55 PM,69.3,32.4,26,30.34,10.0,WNW,3.5,-,N/A,,Clear,290,2013-05-03 21:55:00
6:15 PM,69.4,31.5,24,30.34,10.0,Calm,Calm,-,N/A,,Clear,0,2013-05-03 22:15:00
6:35 PM,68.9,31.3,25,30.34,10.0,Calm,Calm,-,N/A,,Clear,0,2013-05-03 22:35:00
6:55 PM,68.2,34.2,28,30.34,10.0,Calm,Calm,-,N/A,,Clear,0,2013-05-03 22:55:00
7:15 PM,64.2,37.0,37,30.34,10.0,North,6.9,-,N/A,,Clear,360,2013-05-03 23:15:00
7:35 PM,64.0,35.4,35,30.34,10.0,NNW,3.5,-,N/A,,Clear,340,2013-05-03 23:35:00
7:55 PM,62.8,34.5,35,30.34,10.0,NNW,3.5,-,N/A,,Clear,340,2013-05-03 23:55:00
8:15 PM,58.3,35.2,42,30.34,10.0,Calm,Calm,-,N/A,,Clear,0,2013-05-04 00:15:00
8:35 PM,57.0,35.6,45,30.34,10.0,Calm,Calm,-,N/A,,Clear,0,2013-05-04 00:35:00
8:55 PM,61.0,33.1,35,30.35,10.0,Calm,Calm,-,N/A,,Clear,0,2013-05-04 00:55:00
9:15 PM,60.1,33.8,37,30.35,10.0,Calm,Calm,-,N/A,,Clear,0,2013-05-04 01:15:00
9:35 PM,54.1,36.3,51,30.35,10.0,SE,3.5,-,N/A,,Clear,130,2013-05-04 01:35:00
9:55 PM,53.4,37.9,56,30.35,10.0,SE,8.1,-,N/A,,Clear,140,2013-05-04 01:55:00
10:15 PM,53.4,37.8,55,30.35,10.0,South,4.6,-,N/A,,Clear,180,2013-05-04 02:15:00
10:35 PM,54.1,36.7,52,30.35,10.0,South,4.6,-,N/A,,Clear,190,2013-05-04 02:35:00
10:55 PM,54.9,36.5,50,30.35,10.0,South,4.6,-,N/A,,Clear,170,2013-05-04 02:55:00
11:15 PM,51.6,37.0,58,30.36,10.0,SSW,5.8,-,N/A,,Clear,210,2013-05-04 03:15:00
11:55 PM,50.4,36.9,60,30.36,10.0,SW,5.8,-,N/A,,Clear,220,2013-05-04 03:55:00